sensor_id;sensor_type;location;lat;lon;timestamp;P1;durP1;ratioP1;P2;durP2;ratioP2
3841;SDS011;1936;47.074;15.336;2023-04-29T00:01:57;9.60;;;7.40;;
3841;SDS011;1936;47.074;15.336;2023-04-29T00:04:01;8.50;;;7.50;;
3841;SDS011;1936;47.074;15.336;2023-04-29T00:06:05;8.43;;;7.67;;
3841;SDS011;1936;47.074;15.336;2023-04-29T00:08:09;10.73;;;7.13;;
3841;SDS011;1936;47.074;15.336;2023-04-29T00:10:12;9.57;;;6.47;;
3841;SDS011;1936;47.074;15.336;2023-04-29T00:12:16;12.70;;;7.80;;
3841;SDS011;1936;47.074;15.336;2023-04-29T00:14:21;8.23;;;7.20;;
3841;SDS011;1936;47.074;15.336;2023-04-29T00:16:25;7.40;;;6.80;;
3841;SDS011;1936;47.074;15.336;2023-04-29T00:18:31;7.77;;;6.63;;
3841;SDS011;1936;47.074;15.336;2023-04-29T00:20:35;9.60;;;7.33;;
3841;SDS011;1936;47.074;15.336;2023-04-29T00:22:39;8.07;;;6.23;;
3841;SDS011;1936;47.074;15.336;2023-04-29T00:24:42;8.40;;;6.77;;
3841;SDS011;1936;47.074;15.336;2023-04-29T00:26:46;8.10;;;6.13;;
3841;SDS011;1936;47.074;15.336;2023-04-29T00:28:50;8.50;;;7.70;;
3841;SDS011;1936;47.074;15.336;2023-04-29T00:30:55;8.00;;;7.20;;
3841;SDS011;1936;47.074;15.336;2023-04-29T00:32:58;7.97;;;7.27;;
3841;SDS011;1936;47.074;15.336;2023-04-29T00:35:02;8.63;;;7.10;;
3841;SDS011;1936;47.074;15.336;2023-04-29T00:37:06;7.40;;;6.53;;
3841;SDS011;1936;47.074;15.336;2023-04-29T00:39:10;8.53;;;7.63;;
3841;SDS011;1936;47.074;15.336;2023-04-29T00:41:15;7.57;;;6.13;;
3841;SDS011;1936;47.074;15.336;2023-04-29T00:43:19;8.27;;;7.30;;
3841;SDS011;1936;47.074;15.336;2023-04-29T00:45:23;9.87;;;7.43;;
3841;SDS011;1936;47.074;15.336;2023-04-29T00:47:29;9.87;;;7.80;;
3841;SDS011;1936;47.074;15.336;2023-04-29T00:49:33;7.90;;;7.10;;
3841;SDS011;1936;47.074;15.336;2023-04-29T00:51:36;7.77;;;6.87;;
3841;SDS011;1936;47.074;15.336;2023-04-29T00:53:42;7.97;;;6.40;;
3841;SDS011;1936;47.074;15.336;2023-04-29T00:55:47;7.50;;;6.80;;
3841;SDS011;1936;47.074;15.336;2023-04-29T00:57:53;7.80;;;6.90;;
3841;SDS011;1936;47.074;15.336;2023-04-29T00:59:56;9.33;;;7.73;;
3841;SDS011;1936;47.074;15.336;2023-04-29T01:02:00;7.27;;;6.53;;
3841;SDS011;1936;47.074;15.336;2023-04-29T01:04:07;7.80;;;7.00;;
3841;SDS011;1936;47.074;15.336;2023-04-29T01:06:14;12.83;;;7.13;;
3841;SDS011;1936;47.074;15.336;2023-04-29T01:08:27;9.20;;;8.30;;
3841;SDS011;1936;47.074;15.336;2023-04-29T01:10:43;8.77;;;7.17;;
3841;SDS011;1936;47.074;15.336;2023-04-29T01:12:57;10.30;;;8.50;;
3841;SDS011;1936;47.074;15.336;2023-04-29T01:15:07;12.10;;;7.80;;
3841;SDS011;1936;47.074;15.336;2023-04-29T01:17:18;7.20;;;6.50;;
3841;SDS011;1936;47.074;15.336;2023-04-29T01:19:32;10.93;;;7.20;;
3841;SDS011;1936;47.074;15.336;2023-04-29T01:21:45;6.13;;;5.63;;
3841;SDS011;1936;47.074;15.336;2023-04-29T01:23:51;8.13;;;7.30;;
3841;SDS011;1936;47.074;15.336;2023-04-29T01:25:57;7.30;;;6.60;;
3841;SDS011;1936;47.074;15.336;2023-04-29T01:28:03;7.00;;;6.30;;
3841;SDS011;1936;47.074;15.336;2023-04-29T01:30:12;9.47;;;8.40;;
3841;SDS011;1936;47.074;15.336;2023-04-29T01:32:25;9.10;;;7.80;;
3841;SDS011;1936;47.074;15.336;2023-04-29T01:34:41;9.50;;;7.87;;
3841;SDS011;1936;47.074;15.336;2023-04-29T01:36:52;11.87;;;8.10;;
3841;SDS011;1936;47.074;15.336;2023-04-29T01:39:05;8.30;;;7.50;;
3841;SDS011;1936;47.074;15.336;2023-04-29T01:41:14;9.40;;;8.50;;
3841;SDS011;1936;47.074;15.336;2023-04-29T01:43:20;9.88;;;8.60;;
3841;SDS011;1936;47.074;15.336;2023-04-29T01:45:26;13.40;;;8.87;;
3841;SDS011;1936;47.074;15.336;2023-04-29T01:47:31;10.70;;;9.03;;
3841;SDS011;1936;47.074;15.336;2023-04-29T01:49:35;11.40;;;9.03;;
3841;SDS011;1936;47.074;15.336;2023-04-29T01:51:38;9.70;;;8.70;;
3841;SDS011;1936;47.074;15.336;2023-04-29T01:53:42;14.47;;;8.83;;
3841;SDS011;1936;47.074;15.336;2023-04-29T01:55:47;12.87;;;8.20;;
3841;SDS011;1936;47.074;15.336;2023-04-29T01:57:50;9.80;;;7.97;;
3841;SDS011;1936;47.074;15.336;2023-04-29T01:59:53;12.20;;;8.33;;
3841;SDS011;1936;47.074;15.336;2023-04-29T02:01:57;10.80;;;8.55;;
3841;SDS011;1936;47.074;15.336;2023-04-29T02:04:01;7.83;;;7.20;;
3841;SDS011;1936;47.074;15.336;2023-04-29T02:06:05;9.48;;;8.25;;
3841;SDS011;1936;47.074;15.336;2023-04-29T02:08:09;9.00;;;7.97;;
3841;SDS011;1936;47.074;15.336;2023-04-29T02:10:13;10.30;;;7.50;;
3841;SDS011;1936;47.074;15.336;2023-04-29T02:12:18;10.20;;;8.60;;
3841;SDS011;1936;47.074;15.336;2023-04-29T02:14:22;9.50;;;7.53;;
3841;SDS011;1936;47.074;15.336;2023-04-29T02:16:26;11.82;;;8.45;;
3841;SDS011;1936;47.074;15.336;2023-04-29T02:18:29;9.10;;;8.27;;
3841;SDS011;1936;47.074;15.336;2023-04-29T02:20:33;14.40;;;9.50;;
3841;SDS011;1936;47.074;15.336;2023-04-29T02:22:36;9.23;;;7.85;;
3841;SDS011;1936;47.074;15.336;2023-04-29T02:24:40;8.90;;;7.65;;
3841;SDS011;1936;47.074;15.336;2023-04-29T02:26:43;9.15;;;8.20;;
3841;SDS011;1936;47.074;15.336;2023-04-29T02:28:48;11.00;;;8.45;;
3841;SDS011;1936;47.074;15.336;2023-04-29T02:30:52;10.38;;;9.32;;
3841;SDS011;1936;47.074;15.336;2023-04-29T02:32:56;14.23;;;8.02;;
3841;SDS011;1936;47.074;15.336;2023-04-29T02:34:59;7.87;;;7.17;;
3841;SDS011;1936;47.074;15.336;2023-04-29T02:37:03;8.40;;;7.32;;
3841;SDS011;1936;47.074;15.336;2023-04-29T02:39:06;7.70;;;7.00;;
3841;SDS011;1936;47.074;15.336;2023-04-29T02:41:14;8.52;;;7.57;;
3841;SDS011;1936;47.074;15.336;2023-04-29T02:43:18;11.35;;;7.80;;
3841;SDS011;1936;47.074;15.336;2023-04-29T02:45:23;12.45;;;8.73;;
3841;SDS011;1936;47.074;15.336;2023-04-29T02:47:27;8.23;;;7.45;;
3841;SDS011;1936;47.074;15.336;2023-04-29T02:49:30;11.25;;;6.93;;
3841;SDS011;1936;47.074;15.336;2023-04-29T02:51:34;10.15;;;7.55;;
3841;SDS011;1936;47.074;15.336;2023-04-29T02:53:37;14.20;;;8.43;;
3841;SDS011;1936;47.074;15.336;2023-04-29T02:55:41;8.38;;;7.57;;
3841;SDS011;1936;47.074;15.336;2023-04-29T02:57:45;8.63;;;7.85;;
3841;SDS011;1936;47.074;15.336;2023-04-29T02:59:49;9.02;;;7.25;;
3841;SDS011;1936;47.074;15.336;2023-04-29T03:01:54;8.15;;;7.30;;
3841;SDS011;1936;47.074;15.336;2023-04-29T03:03:58;9.68;;;7.35;;
3841;SDS011;1936;47.074;15.336;2023-04-29T03:06:02;8.67;;;7.20;;
3841;SDS011;1936;47.074;15.336;2023-04-29T03:08:06;10.23;;;8.55;;
3841;SDS011;1936;47.074;15.336;2023-04-29T03:10:10;11.82;;;8.88;;
3841;SDS011;1936;47.074;15.336;2023-04-29T03:12:14;8.80;;;7.90;;
3841;SDS011;1936;47.074;15.336;2023-04-29T03:14:18;9.17;;;8.27;;
3841;SDS011;1936;47.074;15.336;2023-04-29T03:16:21;11.10;;;8.45;;
3841;SDS011;1936;47.074;15.336;2023-04-29T03:18:27;9.10;;;8.25;;
3841;SDS011;1936;47.074;15.336;2023-04-29T03:20:30;8.70;;;7.80;;
3841;SDS011;1936;47.074;15.336;2023-04-29T03:22:34;8.43;;;7.20;;
3841;SDS011;1936;47.074;15.336;2023-04-29T03:24:37;10.43;;;6.50;;
3841;SDS011;1936;47.074;15.336;2023-04-29T03:26:41;7.82;;;7.05;;
3841;SDS011;1936;47.074;15.336;2023-04-29T03:28:44;7.60;;;6.30;;
3841;SDS011;1936;47.074;15.336;2023-04-29T03:30:48;8.38;;;7.57;;
3841;SDS011;1936;47.074;15.336;2023-04-29T03:32:52;8.32;;;6.45;;
3841;SDS011;1936;47.074;15.336;2023-04-29T03:34:57;6.90;;;6.20;;
3841;SDS011;1936;47.074;15.336;2023-04-29T03:37:00;8.17;;;7.37;;
3841;SDS011;1936;47.074;15.336;2023-04-29T03:39:04;9.38;;;8.35;;
3841;SDS011;1936;47.074;15.336;2023-04-29T03:41:07;8.25;;;7.40;;
3841;SDS011;1936;47.074;15.336;2023-04-29T03:43:11;18.35;;;7.53;;
3841;SDS011;1936;47.074;15.336;2023-04-29T03:45:15;8.30;;;7.47;;
3841;SDS011;1936;47.074;15.336;2023-04-29T03:47:18;10.30;;;8.13;;
3841;SDS011;1936;47.074;15.336;2023-04-29T03:49:21;8.82;;;7.80;;
3841;SDS011;1936;47.074;15.336;2023-04-29T03:51:27;8.23;;;7.53;;
3841;SDS011;1936;47.074;15.336;2023-04-29T03:53:31;12.95;;;8.05;;
3841;SDS011;1936;47.074;15.336;2023-04-29T03:55:35;9.30;;;7.57;;
3841;SDS011;1936;47.074;15.336;2023-04-29T03:57:39;8.93;;;8.03;;
3841;SDS011;1936;47.074;15.336;2023-04-29T03:59:43;7.95;;;7.20;;
3841;SDS011;1936;47.074;15.336;2023-04-29T04:01:51;7.72;;;6.78;;
3841;SDS011;1936;47.074;15.336;2023-04-29T04:03:54;7.22;;;6.13;;
3841;SDS011;1936;47.074;15.336;2023-04-29T04:05:59;8.20;;;6.63;;
3841;SDS011;1936;47.074;15.336;2023-04-29T04:08:04;11.00;;;7.20;;
3841;SDS011;1936;47.074;15.336;2023-04-29T04:10:08;8.45;;;7.00;;
3841;SDS011;1936;47.074;15.336;2023-04-29T04:12:11;7.68;;;6.75;;
3841;SDS011;1936;47.074;15.336;2023-04-29T04:14:15;6.50;;;5.90;;
3841;SDS011;1936;47.074;15.336;2023-04-29T04:16:19;7.10;;;6.10;;
3841;SDS011;1936;47.074;15.336;2023-04-29T04:18:22;9.20;;;7.50;;
3841;SDS011;1936;47.074;15.336;2023-04-29T04:20:26;9.13;;;7.93;;
3841;SDS011;1936;47.074;15.336;2023-04-29T04:22:29;7.40;;;6.68;;
3841;SDS011;1936;47.074;15.336;2023-04-29T04:24:34;8.40;;;7.40;;
3841;SDS011;1936;47.074;15.336;2023-04-29T04:26:37;9.35;;;8.40;;
3841;SDS011;1936;47.074;15.336;2023-04-29T04:28:42;14.70;;;8.60;;
3841;SDS011;1936;47.074;15.336;2023-04-29T04:30:45;8.13;;;7.32;;
3841;SDS011;1936;47.074;15.336;2023-04-29T04:32:49;10.98;;;8.55;;
3841;SDS011;1936;47.074;15.336;2023-04-29T04:34:52;8.85;;;7.93;;
3841;SDS011;1936;47.074;15.336;2023-04-29T04:36:56;8.70;;;7.80;;
3841;SDS011;1936;47.074;15.336;2023-04-29T04:38:59;8.80;;;7.93;;
3841;SDS011;1936;47.074;15.336;2023-04-29T04:41:06;10.23;;;9.23;;
3841;SDS011;1936;47.074;15.336;2023-04-29T04:43:09;9.57;;;8.67;;
3841;SDS011;1936;47.074;15.336;2023-04-29T04:45:13;8.50;;;7.60;;
3841;SDS011;1936;47.074;15.336;2023-04-29T04:47:17;7.30;;;6.70;;
3841;SDS011;1936;47.074;15.336;2023-04-29T04:49:20;7.03;;;6.33;;
3841;SDS011;1936;47.074;15.336;2023-04-29T04:51:26;9.90;;;8.90;;
3841;SDS011;1936;47.074;15.336;2023-04-29T04:53:30;16.53;;;8.37;;
3841;SDS011;1936;47.074;15.336;2023-04-29T04:55:33;7.80;;;7.10;;
3841;SDS011;1936;47.074;15.336;2023-04-29T04:57:39;8.17;;;7.13;;
3841;SDS011;1936;47.074;15.336;2023-04-29T04:59:42;7.87;;;7.07;;
3841;SDS011;1936;47.074;15.336;2023-04-29T05:01:46;9.63;;;6.53;;
3841;SDS011;1936;47.074;15.336;2023-04-29T05:03:49;8.10;;;7.30;;
3841;SDS011;1936;47.074;15.336;2023-04-29T05:05:53;15.30;;;6.80;;
3841;SDS011;1936;47.074;15.336;2023-04-29T05:07:56;7.13;;;5.80;;
3841;SDS011;1936;47.074;15.336;2023-04-29T05:09:59;8.70;;;6.40;;
3841;SDS011;1936;47.074;15.336;2023-04-29T05:12:03;10.73;;;7.13;;
3841;SDS011;1936;47.074;15.336;2023-04-29T05:14:08;6.50;;;5.90;;
3841;SDS011;1936;47.074;15.336;2023-04-29T05:16:12;9.43;;;7.20;;
3841;SDS011;1936;47.074;15.336;2023-04-29T05:18:17;5.97;;;5.37;;
3841;SDS011;1936;47.074;15.336;2023-04-29T05:20:21;5.80;;;5.30;;
3841;SDS011;1936;47.074;15.336;2023-04-29T05:22:24;6.30;;;5.00;;
3841;SDS011;1936;47.074;15.336;2023-04-29T05:24:28;5.63;;;4.90;;
3841;SDS011;1936;47.074;15.336;2023-04-29T05:26:31;5.57;;;5.07;;
3841;SDS011;1936;47.074;15.336;2023-04-29T05:28:34;6.20;;;5.27;;
3841;SDS011;1936;47.074;15.336;2023-04-29T05:30:40;5.33;;;4.83;;
3841;SDS011;1936;47.074;15.336;2023-04-29T05:32:44;5.93;;;5.20;;
3841;SDS011;1936;47.074;15.336;2023-04-29T05:34:47;5.90;;;5.37;;
3841;SDS011;1936;47.074;15.336;2023-04-29T05:36:51;6.17;;;5.50;;
3841;SDS011;1936;47.074;15.336;2023-04-29T05:38:55;5.70;;;5.07;;
3841;SDS011;1936;47.074;15.336;2023-04-29T05:40:58;5.77;;;5.10;;
3841;SDS011;1936;47.074;15.336;2023-04-29T05:43:03;5.37;;;4.87;;
3841;SDS011;1936;47.074;15.336;2023-04-29T05:45:07;5.97;;;5.20;;
3841;SDS011;1936;47.074;15.336;2023-04-29T05:47:13;5.13;;;4.40;;
3841;SDS011;1936;47.074;15.336;2023-04-29T05:49:16;6.27;;;5.03;;
3841;SDS011;1936;47.074;15.336;2023-04-29T05:51:20;5.20;;;4.70;;
3841;SDS011;1936;47.074;15.336;2023-04-29T05:53:23;6.40;;;4.90;;
3841;SDS011;1936;47.074;15.336;2023-04-29T05:55:27;7.27;;;4.97;;
3841;SDS011;1936;47.074;15.336;2023-04-29T05:57:31;6.00;;;4.73;;
3841;SDS011;1936;47.074;15.336;2023-04-29T05:59:34;5.87;;;4.90;;
3841;SDS011;1936;47.074;15.336;2023-04-29T06:01:37;5.60;;;5.03;;
3841;SDS011;1936;47.074;15.336;2023-04-29T06:03:43;4.30;;;3.90;;
3841;SDS011;1936;47.074;15.336;2023-04-29T06:05:47;4.67;;;4.27;;
3841;SDS011;1936;47.074;15.336;2023-04-29T06:07:51;4.67;;;4.20;;
3841;SDS011;1936;47.074;15.336;2023-04-29T06:09:55;7.00;;;4.13;;
3841;SDS011;1936;47.074;15.336;2023-04-29T06:11:58;4.80;;;3.90;;
3841;SDS011;1936;47.074;15.336;2023-04-29T06:14:02;4.30;;;3.93;;
3841;SDS011;1936;47.074;15.336;2023-04-29T06:16:05;4.60;;;4.20;;
3841;SDS011;1936;47.074;15.336;2023-04-29T06:18:09;6.40;;;4.50;;
3841;SDS011;1936;47.074;15.336;2023-04-29T06:20:14;3.30;;;3.00;;
3841;SDS011;1936;47.074;15.336;2023-04-29T06:22:21;4.27;;;3.47;;
3841;SDS011;1936;47.074;15.336;2023-04-29T06:24:25;2.43;;;2.23;;
3841;SDS011;1936;47.074;15.336;2023-04-29T06:26:29;2.90;;;2.70;;
3841;SDS011;1936;47.074;15.336;2023-04-29T06:28:32;4.00;;;2.60;;
3841;SDS011;1936;47.074;15.336;2023-04-29T06:30:36;4.43;;;2.47;;
3841;SDS011;1936;47.074;15.336;2023-04-29T06:32:39;3.00;;;1.67;;
3841;SDS011;1936;47.074;15.336;2023-04-29T06:34:43;2.60;;;2.03;;
3841;SDS011;1936;47.074;15.336;2023-04-29T06:36:48;1.43;;;1.33;;
3841;SDS011;1936;47.074;15.336;2023-04-29T06:38:52;3.27;;;2.00;;
3841;SDS011;1936;47.074;15.336;2023-04-29T06:40:56;2.23;;;1.90;;
3841;SDS011;1936;47.074;15.336;2023-04-29T06:43:01;6.73;;;2.37;;
3841;SDS011;1936;47.074;15.336;2023-04-29T06:45:05;2.10;;;1.90;;
3841;SDS011;1936;47.074;15.336;2023-04-29T06:47:09;2.30;;;2.10;;
3841;SDS011;1936;47.074;15.336;2023-04-29T06:49:13;1.80;;;1.70;;
3841;SDS011;1936;47.074;15.336;2023-04-29T06:51:16;1.30;;;1.20;;
3841;SDS011;1936;47.074;15.336;2023-04-29T06:53:24;1.70;;;1.60;;
3841;SDS011;1936;47.074;15.336;2023-04-29T06:55:28;1.93;;;1.70;;
3841;SDS011;1936;47.074;15.336;2023-04-29T06:57:31;1.40;;;1.30;;
3841;SDS011;1936;47.074;15.336;2023-04-29T06:59:35;1.67;;;1.10;;
3841;SDS011;1936;47.074;15.336;2023-04-29T07:01:38;2.30;;;0.90;;
3841;SDS011;1936;47.074;15.336;2023-04-29T07:03:45;3.00;;;1.90;;
3841;SDS011;1936;47.074;15.336;2023-04-29T07:05:49;6.00;;;1.63;;
3841;SDS011;1936;47.074;15.336;2023-04-29T07:07:53;1.57;;;1.47;;
3841;SDS011;1936;47.074;15.336;2023-04-29T07:09:57;1.00;;;0.70;;
3841;SDS011;1936;47.074;15.336;2023-04-29T07:12:01;1.13;;;0.97;;
3841;SDS011;1936;47.074;15.336;2023-04-29T07:14:05;1.20;;;1.10;;
3841;SDS011;1936;47.074;15.336;2023-04-29T07:16:13;2.10;;;1.03;;
3841;SDS011;1936;47.074;15.336;2023-04-29T07:18:18;2.97;;;1.60;;
3841;SDS011;1936;47.074;15.336;2023-04-29T07:20:22;1.90;;;1.57;;
3841;SDS011;1936;47.074;15.336;2023-04-29T07:22:26;2.00;;;1.50;;
3841;SDS011;1936;47.074;15.336;2023-04-29T07:24:29;1.37;;;1.27;;
3841;SDS011;1936;47.074;15.336;2023-04-29T07:26:34;2.80;;;1.20;;
3841;SDS011;1936;47.074;15.336;2023-04-29T07:28:38;2.63;;;1.50;;
3841;SDS011;1936;47.074;15.336;2023-04-29T07:30:42;2.80;;;1.30;;
3841;SDS011;1936;47.074;15.336;2023-04-29T07:32:46;2.50;;;1.17;;
3841;SDS011;1936;47.074;15.336;2023-04-29T07:34:49;3.53;;;1.57;;
3841;SDS011;1936;47.074;15.336;2023-04-29T07:36:53;1.23;;;0.93;;
3841;SDS011;1936;47.074;15.336;2023-04-29T07:38:57;4.00;;;1.67;;
3841;SDS011;1936;47.074;15.336;2023-04-29T07:41:01;1.30;;;1.20;;
3841;SDS011;1936;47.074;15.336;2023-04-29T07:43:06;1.80;;;1.20;;
3841;SDS011;1936;47.074;15.336;2023-04-29T07:45:09;1.10;;;0.70;;
3841;SDS011;1936;47.074;15.336;2023-04-29T07:47:14;1.50;;;1.30;;
3841;SDS011;1936;47.074;15.336;2023-04-29T07:49:18;1.40;;;0.80;;
3841;SDS011;1936;47.074;15.336;2023-04-29T07:51:21;1.33;;;0.97;;
3841;SDS011;1936;47.074;15.336;2023-04-29T07:53:24;1.07;;;0.70;;
3841;SDS011;1936;47.074;15.336;2023-04-29T07:55:28;1.20;;;0.90;;
3841;SDS011;1936;47.074;15.336;2023-04-29T07:57:32;2.43;;;0.90;;
3841;SDS011;1936;47.074;15.336;2023-04-29T07:59:37;2.10;;;0.70;;
3841;SDS011;1936;47.074;15.336;2023-04-29T08:01:40;1.07;;;0.70;;
3841;SDS011;1936;47.074;15.336;2023-04-29T08:03:44;2.70;;;0.90;;
3841;SDS011;1936;47.074;15.336;2023-04-29T08:05:48;2.07;;;1.07;;
3841;SDS011;1936;47.074;15.336;2023-04-29T08:07:54;1.40;;;0.80;;
3841;SDS011;1936;47.074;15.336;2023-04-29T08:09:57;3.53;;;0.90;;
3841;SDS011;1936;47.074;15.336;2023-04-29T08:12:01;1.10;;;0.80;;
3841;SDS011;1936;47.074;15.336;2023-04-29T08:14:05;0.90;;;0.70;;
3841;SDS011;1936;47.074;15.336;2023-04-29T08:16:10;1.10;;;0.70;;
3841;SDS011;1936;47.074;15.336;2023-04-29T08:18:14;1.37;;;0.70;;
3841;SDS011;1936;47.074;15.336;2023-04-29T08:20:17;1.30;;;0.93;;
3841;SDS011;1936;47.074;15.336;2023-04-29T08:22:21;1.73;;;1.10;;
3841;SDS011;1936;47.074;15.336;2023-04-29T08:24:24;1.40;;;1.10;;
3841;SDS011;1936;47.074;15.336;2023-04-29T08:26:29;1.00;;;0.67;;
3841;SDS011;1936;47.074;15.336;2023-04-29T08:28:33;1.20;;;0.90;;
3841;SDS011;1936;47.074;15.336;2023-04-29T08:30:37;1.00;;;0.70;;
3841;SDS011;1936;47.074;15.336;2023-04-29T08:32:43;3.03;;;1.10;;
3841;SDS011;1936;47.074;15.336;2023-04-29T08:34:47;1.93;;;0.90;;
3841;SDS011;1936;47.074;15.336;2023-04-29T08:36:51;1.40;;;1.13;;
3841;SDS011;1936;47.074;15.336;2023-04-29T08:38:54;1.83;;;1.10;;
3841;SDS011;1936;47.074;15.336;2023-04-29T08:40:58;1.77;;;1.67;;
3841;SDS011;1936;47.074;15.336;2023-04-29T08:43:02;1.50;;;1.03;;
3841;SDS011;1936;47.074;15.336;2023-04-29T08:45:07;1.23;;;1.10;;
3841;SDS011;1936;47.074;15.336;2023-04-29T08:47:11;3.33;;;0.87;;
3841;SDS011;1936;47.074;15.336;2023-04-29T08:49:16;1.03;;;0.80;;
3841;SDS011;1936;47.074;15.336;2023-04-29T08:51:20;1.40;;;0.90;;
3841;SDS011;1936;47.074;15.336;2023-04-29T08:53:23;1.10;;;0.70;;
3841;SDS011;1936;47.074;15.336;2023-04-29T08:55:27;1.67;;;1.10;;
3841;SDS011;1936;47.074;15.336;2023-04-29T08:57:30;1.57;;;0.87;;
3841;SDS011;1936;47.074;15.336;2023-04-29T08:59:40;2.83;;;0.80;;
3841;SDS011;1936;47.074;15.336;2023-04-29T09:01:43;1.00;;;0.63;;
3841;SDS011;1936;47.074;15.336;2023-04-29T09:03:53;1.10;;;0.80;;
3841;SDS011;1936;47.074;15.336;2023-04-29T09:06:08;1.33;;;1.10;;
3841;SDS011;1936;47.074;15.336;2023-04-29T09:08:12;1.50;;;0.60;;
3841;SDS011;1936;47.074;15.336;2023-04-29T09:10:17;1.30;;;0.80;;
3841;SDS011;1936;47.074;15.336;2023-04-29T09:12:21;1.87;;;0.90;;
3841;SDS011;1936;47.074;15.336;2023-04-29T09:14:25;1.23;;;0.90;;
3841;SDS011;1936;47.074;15.336;2023-04-29T09:16:30;2.67;;;0.63;;
3841;SDS011;1936;47.074;15.336;2023-04-29T09:18:43;1.13;;;0.90;;
3841;SDS011;1936;47.074;15.336;2023-04-29T09:20:48;1.20;;;1.10;;
3841;SDS011;1936;47.074;15.336;2023-04-29T09:22:53;4.33;;;0.80;;
3841;SDS011;1936;47.074;15.336;2023-04-29T09:25:10;3.13;;;1.00;;
3841;SDS011;1936;47.074;15.336;2023-04-29T09:27:25;2.20;;;0.97;;
3841;SDS011;1936;47.074;15.336;2023-04-29T09:29:29;1.00;;;0.80;;
3841;SDS011;1936;47.074;15.336;2023-04-29T09:31:35;1.40;;;1.07;;
3841;SDS011;1936;47.074;15.336;2023-04-29T09:33:50;2.40;;;0.97;;
3841;SDS011;1936;47.074;15.336;2023-04-29T09:35:54;1.47;;;0.60;;
3841;SDS011;1936;47.074;15.336;2023-04-29T09:38:09;1.10;;;0.93;;
3841;SDS011;1936;47.074;15.336;2023-04-29T09:40:26;2.37;;;1.37;;
3841;SDS011;1936;47.074;15.336;2023-04-29T09:42:32;1.50;;;1.07;;
3841;SDS011;1936;47.074;15.336;2023-04-29T09:44:44;3.30;;;1.20;;
3841;SDS011;1936;47.074;15.336;2023-04-29T09:46:53;2.37;;;1.00;;
3841;SDS011;1936;47.074;15.336;2023-04-29T09:48:57;1.23;;;1.10;;
3841;SDS011;1936;47.074;15.336;2023-04-29T09:51:01;1.40;;;0.90;;
3841;SDS011;1936;47.074;15.336;2023-04-29T09:53:05;1.20;;;0.80;;
3841;SDS011;1936;47.074;15.336;2023-04-29T09:55:11;1.73;;;0.70;;
3841;SDS011;1936;47.074;15.336;2023-04-29T09:57:16;1.27;;;0.80;;
3841;SDS011;1936;47.074;15.336;2023-04-29T09:59:20;1.83;;;1.00;;
3841;SDS011;1936;47.074;15.336;2023-04-29T10:01:25;1.30;;;0.80;;
3841;SDS011;1936;47.074;15.336;2023-04-29T10:03:31;2.50;;;0.70;;
3841;SDS011;1936;47.074;15.336;2023-04-29T10:05:41;1.53;;;1.00;;
3841;SDS011;1936;47.074;15.336;2023-04-29T10:07:48;1.23;;;1.00;;
3841;SDS011;1936;47.074;15.336;2023-04-29T10:09:52;1.30;;;1.20;;
3841;SDS011;1936;47.074;15.336;2023-04-29T10:11:59;2.13;;;0.83;;
3841;SDS011;1936;47.074;15.336;2023-04-29T10:14:04;1.30;;;1.10;;
3841;SDS011;1936;47.074;15.336;2023-04-29T10:16:16;1.67;;;1.10;;
3841;SDS011;1936;47.074;15.336;2023-04-29T10:18:33;1.33;;;1.07;;
3841;SDS011;1936;47.074;15.336;2023-04-29T10:20:39;2.90;;;1.13;;
3841;SDS011;1936;47.074;15.336;2023-04-29T10:22:48;1.43;;;1.10;;
3841;SDS011;1936;47.074;15.336;2023-04-29T10:24:52;1.97;;;1.07;;
3841;SDS011;1936;47.074;15.336;2023-04-29T10:27:01;0.80;;;0.73;;
3841;SDS011;1936;47.074;15.336;2023-04-29T10:29:07;1.30;;;0.73;;
3841;SDS011;1936;47.074;15.336;2023-04-29T10:31:13;1.00;;;0.77;;
3841;SDS011;1936;47.074;15.336;2023-04-29T10:33:18;0.97;;;0.80;;
3841;SDS011;1936;47.074;15.336;2023-04-29T10:35:23;2.97;;;1.00;;
3841;SDS011;1936;47.074;15.336;2023-04-29T10:37:27;1.60;;;0.70;;
3841;SDS011;1936;47.074;15.336;2023-04-29T10:39:34;1.00;;;0.90;;
3841;SDS011;1936;47.074;15.336;2023-04-29T10:41:42;1.23;;;0.70;;
3841;SDS011;1936;47.074;15.336;2023-04-29T10:43:49;1.40;;;0.80;;
3841;SDS011;1936;47.074;15.336;2023-04-29T10:48:21;2.40;;;1.00;;
3841;SDS011;1936;47.074;15.336;2023-04-29T10:50:27;1.47;;;1.30;;
3841;SDS011;1936;47.074;15.336;2023-04-29T10:52:31;3.67;;;1.20;;
3841;SDS011;1936;47.074;15.336;2023-04-29T10:55:00;2.03;;;0.73;;
3841;SDS011;1936;47.074;15.336;2023-04-29T10:57:08;1.30;;;0.80;;
3841;SDS011;1936;47.074;15.336;2023-04-29T10:59:44;19.87;;;10.03;;
3841;SDS011;1936;47.074;15.336;2023-04-29T11:01:52;2.10;;;1.63;;
3841;SDS011;1936;47.074;15.336;2023-04-29T11:04:02;6.33;;;0.93;;
3841;SDS011;1936;47.074;15.336;2023-04-29T11:06:14;1.00;;;0.90;;
3841;SDS011;1936;47.074;15.336;2023-04-29T11:08:19;1.43;;;0.87;;
3841;SDS011;1936;47.074;15.336;2023-04-29T11:10:34;1.40;;;1.23;;
3841;SDS011;1936;47.074;15.336;2023-04-29T11:12:39;3.03;;;1.07;;
3841;SDS011;1936;47.074;15.336;2023-04-29T11:14:48;4.57;;;0.93;;
3841;SDS011;1936;47.074;15.336;2023-04-29T11:16:55;1.40;;;1.00;;
3841;SDS011;1936;47.074;15.336;2023-04-29T11:19:03;1.40;;;0.83;;
3841;SDS011;1936;47.074;15.336;2023-04-29T11:21:13;2.20;;;1.10;;
3841;SDS011;1936;47.074;15.336;2023-04-29T11:23:19;1.50;;;1.00;;
3841;SDS011;1936;47.074;15.336;2023-04-29T11:25:29;3.73;;;1.27;;
3841;SDS011;1936;47.074;15.336;2023-04-29T11:27:34;0.77;;;0.67;;
3841;SDS011;1936;47.074;15.336;2023-04-29T11:29:39;1.00;;;0.70;;
3841;SDS011;1936;47.074;15.336;2023-04-29T11:31:45;0.73;;;0.50;;
3841;SDS011;1936;47.074;15.336;2023-04-29T11:33:48;1.77;;;0.87;;
3841;SDS011;1936;47.074;15.336;2023-04-29T11:35:52;1.83;;;0.80;;
3841;SDS011;1936;47.074;15.336;2023-04-29T11:37:57;1.20;;;0.63;;
3841;SDS011;1936;47.074;15.336;2023-04-29T11:40:03;1.40;;;0.80;;
3841;SDS011;1936;47.074;15.336;2023-04-29T11:42:08;1.70;;;0.80;;
3841;SDS011;1936;47.074;15.336;2023-04-29T11:44:12;1.57;;;0.70;;
3841;SDS011;1936;47.074;15.336;2023-04-29T11:46:15;0.90;;;0.60;;
3841;SDS011;1936;47.074;15.336;2023-04-29T11:48:21;0.80;;;0.57;;
3841;SDS011;1936;47.074;15.336;2023-04-29T11:50:25;2.00;;;0.70;;
3841;SDS011;1936;47.074;15.336;2023-04-29T11:52:28;0.83;;;0.50;;
3841;SDS011;1936;47.074;15.336;2023-04-29T11:54:32;0.90;;;0.43;;
3841;SDS011;1936;47.074;15.336;2023-04-29T11:56:36;0.90;;;0.53;;
3841;SDS011;1936;47.074;15.336;2023-04-29T11:58:41;0.70;;;0.50;;
3841;SDS011;1936;47.074;15.336;2023-04-29T12:00:45;3.03;;;0.70;;
3841;SDS011;1936;47.074;15.336;2023-04-29T12:02:50;0.80;;;0.53;;
3841;SDS011;1936;47.074;15.336;2023-04-29T12:04:55;3.47;;;0.97;;
3841;SDS011;1936;47.074;15.336;2023-04-29T12:07:01;0.70;;;0.43;;
3841;SDS011;1936;47.074;15.336;2023-04-29T12:09:05;0.90;;;0.60;;
3841;SDS011;1936;47.074;15.336;2023-04-29T12:11:09;0.90;;;0.57;;
3841;SDS011;1936;47.074;15.336;2023-04-29T12:13:12;1.47;;;0.90;;
3841;SDS011;1936;47.074;15.336;2023-04-29T12:15:16;2.00;;;0.80;;
3841;SDS011;1936;47.074;15.336;2023-04-29T12:17:20;2.50;;;0.60;;
3841;SDS011;1936;47.074;15.336;2023-04-29T12:19:24;3.00;;;1.47;;
3841;SDS011;1936;47.074;15.336;2023-04-29T12:21:29;1.07;;;0.60;;
3841;SDS011;1936;47.074;15.336;2023-04-29T12:23:33;1.57;;;0.80;;
3841;SDS011;1936;47.074;15.336;2023-04-29T12:25:38;0.80;;;0.60;;
3841;SDS011;1936;47.074;15.336;2023-04-29T12:27:42;1.53;;;0.80;;
3841;SDS011;1936;47.074;15.336;2023-04-29T12:29:48;1.50;;;0.63;;
3841;SDS011;1936;47.074;15.336;2023-04-29T12:31:54;1.00;;;0.50;;
3841;SDS011;1936;47.074;15.336;2023-04-29T12:33:58;1.83;;;0.60;;
3841;SDS011;1936;47.074;15.336;2023-04-29T12:36:03;0.90;;;0.60;;
3841;SDS011;1936;47.074;15.336;2023-04-29T12:38:23;1.10;;;0.67;;
3841;SDS011;1936;47.074;15.336;2023-04-29T12:40:28;0.90;;;0.70;;
3841;SDS011;1936;47.074;15.336;2023-04-29T12:42:33;0.83;;;0.60;;
3841;SDS011;1936;47.074;15.336;2023-04-29T12:44:37;1.20;;;0.70;;
3841;SDS011;1936;47.074;15.336;2023-04-29T12:46:41;1.40;;;0.70;;
3841;SDS011;1936;47.074;15.336;2023-04-29T12:48:44;0.90;;;0.60;;